Salem, South Dakota
Current Conditions -  °F | °C
As of 5:15 PM on Wednesday 26 Nov 2014 (Local Time) from KMDS Reporting Station
Overcast Overcast  
Wind Chill: -20°   Ceiling: 8000
Heat Index: -11°   Visibility: 10mi
Dew Point: -14°   Wind: 15mph
Humidity: 79%   Direction: 350°N
Pressure: 30.35"   Gusts: 18mph
Location:  43.72°N, 97.39°W
Report Text: KMDS 262315Z AUTO 35013G16KT 10SM OVC080 M11/M14 A3035 RMK AO2
Loading
Personal Weather Stations






























Interactive Weather Map New forecast layout! Learn more

10-Day Weather Forecast

Advertisements
Track Severe Weather on mobile